Time;durP1;ratioP1;P1;durP2;ratioP2;P2;SDS_P1;SDS_P2;PMS_P1;PMS_P2;Temp;Humidity;BMP_temperature;BMP_pressure;BME280_temperature;BME280_humidity;BME280_pressure;Samples;Min_cycle;Max_cycle;Signal;HPM_P1;HPM_P2
2021/12/10 00:02:11;;;;;;;11.37;6.77;;;4.20;99.90;;;;;;5018433;28;20956;-87
2021/12/10 00:04:41;;;;;;;10.47;6.57;;;4.00;99.90;;;;;;5015934;28;20444;-86
2021/12/10 00:07:11;;;;;;;7.83;6.10;;;4.00;99.90;;;;;;5020838;28;20501;-86
2021/12/10 00:09:42;;;;;;;9.00;6.30;;;3.90;99.90;;;;;;5020825;28;20770;-86
2021/12/10 00:12:14;;;;;;;7.27;4.93;;;3.80;99.90;;;;;;5017406;28;20485;-86
2021/12/10 00:14:43;;;;;;;9.60;6.30;;;3.80;99.90;;;;;;5015328;28;20458;-86
2021/12/10 00:17:12;;;;;;;8.17;6.77;;;3.70;99.90;;;;;;5024275;28;20472;-86
2021/12/10 00:19:44;;;;;;;7.73;6.10;;;3.70;99.90;;;;;;5018125;28;20450;-86
2021/12/10 00:22:14;;;;;;;9.27;6.50;;;3.70;99.90;;;;;;5023041;28;20477;-86
2021/12/10 00:24:43;;;;;;;8.90;5.47;;;3.50;99.90;;;;;;5024795;28;20450;-87
2021/12/10 00:27:12;;;;;;;7.87;5.87;;;3.50;99.90;;;;;;5018053;28;20484;-86
2021/12/10 00:29:48;;;;;;;10.50;6.20;;;3.40;99.90;;;;;;5018311;28;20453;-86
2021/12/10 00:32:17;;;;;;;8.17;5.80;;;3.30;99.90;;;;;;5019701;28;20454;-86
2021/12/10 00:34:47;;;;;;;9.03;6.80;;;3.30;99.90;;;;;;5016479;28;20476;-86
2021/12/10 00:37:18;;;;;;;6.57;5.43;;;3.30;99.90;;;;;;5012612;28;20470;-86
2021/12/10 00:39:51;;;;;;;9.80;5.73;;;3.30;99.90;;;;;;5019772;28;20446;-85
2021/12/10 00:42:22;;;;;;;7.93;5.97;;;3.30;99.90;;;;;;5014532;28;20845;-86
2021/12/10 00:44:51;;;;;;;9.87;6.57;;;3.30;99.90;;;;;;5010123;28;20439;-86
2021/12/10 00:47:18;;;;;;;6.47;5.17;;;3.30;99.90;;;;;;5024381;28;20484;-86
2021/12/10 00:49:45;;;;;;;10.37;7.10;;;3.30;99.90;;;;;;5030693;28;20517;-86
2021/12/10 00:52:15;;;;;;;11.63;6.13;;;3.30;99.90;;;;;;5033949;28;20446;-86
2021/12/10 00:54:42;;;;;;;8.50;6.57;;;3.30;99.90;;;;;;5032796;28;20464;-86
2021/12/10 00:57:10;;;;;;;9.13;7.23;;;3.40;99.90;;;;;;5012895;28;20469;-86
2021/12/10 00:59:38;;;;;;;9.00;7.40;;;3.50;99.90;;;;;;5038070;28;20984;-86
2021/12/10 01:02:10;;;;;;;10.73;7.63;;;3.50;99.90;;;;;;5019755;28;20458;-86
2021/12/10 01:04:39;;;;;;;8.17;6.63;;;3.60;99.90;;;;;;5025211;28;21139;-86
2021/12/10 01:07:09;;;;;;;8.33;6.87;;;3.60;99.90;;;;;;5020084;28;20491;-86
2021/12/10 01:09:40;;;;;;;9.33;6.77;;;3.70;99.90;;;;;;5023630;28;20453;-85
2021/12/10 01:12:11;;;;;;;9.33;6.53;;;3.80;99.90;;;;;;5017363;28;20453;-85
2021/12/10 01:14:59;;;;;;;13.63;7.70;;;3.90;99.90;;;;;;5033730;28;20460;-85
2021/12/10 01:26:05;;;;;;;7.37;5.70;;;4.20;99.90;;;;;;5019246;28;20493;-85
2021/12/10 01:28:33;;;;;;;9.37;5.60;;;4.30;99.90;;;;;;5022111;28;20473;-85
2021/12/10 01:30:59;;;;;;;6.20;5.13;;;4.40;99.90;;;;;;5018209;28;20550;-85
2021/12/10 01:33:28;;;;;;;8.40;5.80;;;4.40;99.90;;;;;;5019405;28;20454;-85
2021/12/10 01:35:57;;;;;;;12.03;5.37;;;4.50;99.90;;;;;;5016156;28;20494;-85
2021/12/10 01:38:25;;;;;;;7.30;4.90;;;4.50;99.90;;;;;;5017125;28;20460;-85
2021/12/10 01:40:56;;;;;;;6.37;5.20;;;4.40;99.90;;;;;;5016160;28;20486;-85
2021/12/10 01:43:25;;;;;;;6.03;5.43;;;4.40;99.90;;;;;;5016091;28;20521;-85
2021/12/10 01:45:54;;;;;;;11.23;5.93;;;4.40;99.90;;;;;;5016903;28;20566;-85
2021/12/10 01:48:26;;;;;;;6.80;4.83;;;4.30;99.90;;;;;;5016974;28;20489;-85
2021/12/10 01:50:56;;;;;;;5.93;4.50;;;4.30;99.90;;;;;;5015924;28;20831;-84
2021/12/10 01:53:26;;;;;;;9.23;6.10;;;4.40;99.90;;;;;;5017045;28;20458;-85
2021/12/10 01:55:54;;;;;;;9.20;5.17;;;4.40;99.90;;;;;;5016145;28;20578;-85
2021/12/10 01:58:24;;;;;;;5.90;4.80;;;4.40;99.90;;;;;;5016960;28;20452;-85
2021/12/10 02:00:57;;;;;;;8.00;5.40;;;4.40;99.90;;;;;;5015740;28;21147;-85
2021/12/10 02:03:24;;;;;;;11.97;5.70;;;4.40;99.90;;;;;;5016202;28;21054;-84
2021/12/10 02:05:51;;;;;;;8.97;5.67;;;4.30;99.90;;;;;;5017864;28;20486;-84
2021/12/10 02:08:20;;;;;;;6.17;4.83;;;4.30;99.90;;;;;;5016091;28;20549;-84
2021/12/10 02:10:47;;;;;;;8.50;6.00;;;4.20;99.90;;;;;;5015401;28;20453;-85
2021/12/10 02:13:14;;;;;;;8.03;5.00;;;4.20;99.90;;;;;;5015997;28;20457;-85
2021/12/10 02:15:41;;;;;;;8.20;5.57;;;4.10;99.90;;;;;;5016616;28;20470;-85
2021/12/10 02:18:09;;;;;;;5.83;4.47;;;4.00;99.90;;;;;;5019716;28;20452;-85
2021/12/10 02:20:45;;;;;;;7.90;5.00;;;4.00;99.90;;;;;;5015587;28;20964;-84
2021/12/10 02:23:12;;;;;;;7.17;4.53;;;3.90;99.90;;;;;;5015997;28;20463;-85
2021/12/10 02:25:39;;;;;;;6.53;4.27;;;3.80;99.90;;;;;;5016260;28;21006;-85
2021/12/10 02:28:08;;;;;;;8.13;4.43;;;3.80;99.90;;;;;;5016403;28;20461;-85
2021/12/10 02:30:35;;;;;;;7.27;5.10;;;3.70;99.90;;;;;;5015091;28;20969;-85
2021/12/10 02:33:03;;;;;;;11.30;4.97;;;3.60;99.90;;;;;;5015224;28;20500;-84
2021/12/10 02:35:30;;;;;;;6.07;4.77;;;3.70;99.90;;;;;;5015816;28;20482;-85
2021/12/10 02:37:58;;;;;;;7.83;4.60;;;3.60;99.90;;;;;;5014840;28;20458;-85
2021/12/10 02:40:27;;;;;;;7.47;4.90;;;3.70;99.90;;;;;;5014842;28;20458;-84
2021/12/10 02:42:55;;;;;;;8.43;4.57;;;3.60;99.90;;;;;;5014759;28;20825;-84
2021/12/10 02:45:25;;;;;;;6.60;4.30;;;3.60;99.90;;;;;;5014164;28;20490;-85
2021/12/10 02:47:52;;;;;;;10.80;5.03;;;3.50;99.90;;;;;;5014560;28;20478;-84
2021/12/10 02:50:21;;;;;;;6.37;4.10;;;3.60;99.90;;;;;;5014391;28;20853;-84
2021/12/10 02:52:48;;;;;;;11.20;5.60;;;3.60;99.90;;;;;;5014347;28;20822;-85
2021/12/10 02:55:17;;;;;;;9.07;4.17;;;3.50;99.90;;;;;;5014470;28;20458;-84
2021/12/10 02:57:46;;;;;;;5.43;3.73;;;3.40;99.90;;;;;;5014595;28;20451;-84
2021/12/10 03:00:16;;;;;;;8.77;3.90;;;3.50;99.90;;;;;;5014292;28;20458;-84
2021/12/10 03:02:43;;;;;;;7.40;3.50;;;3.50;99.90;;;;;;5013978;28;22252;-84
2021/12/10 03:05:12;;;;;;;8.47;3.70;;;3.50;99.90;;;;;;5014385;28;20464;-84
2021/12/10 03:07:42;;;;;;;5.63;3.33;;;3.30;99.90;;;;;;5014358;28;20493;-84
2021/12/10 03:10:12;;;;;;;11.00;3.63;;;3.30;99.90;;;;;;5013634;28;20454;-84
2021/12/10 03:12:41;;;;;;;6.43;3.80;;;3.20;99.90;;;;;;5014328;28;20448;-84
2021/12/10 03:15:09;;;;;;;5.53;3.50;;;3.30;99.90;;;;;;5014418;28;20449;-84
2021/12/10 03:17:36;;;;;;;6.70;3.47;;;3.30;99.90;;;;;;5016996;28;20449;-84
2021/12/10 03:20:09;;;;;;;5.40;3.40;;;3.20;99.90;;;;;;5018056;28;20838;-84
2021/12/10 03:22:37;;;;;;;9.37;3.60;;;3.10;99.90;;;;;;5015125;28;20460;-84
2021/12/10 03:25:05;;;;;;;8.23;3.97;;;3.10;99.90;;;;;;5018126;28;20954;-84
2021/12/10 03:27:32;;;;;;;7.17;3.67;;;3.10;99.90;;;;;;5017684;28;20489;-84
2021/12/10 03:30:01;;;;;;;7.60;3.57;;;3.10;99.90;;;;;;5019202;28;20477;-84
2021/12/10 03:32:32;;;;;;;6.73;3.37;;;3.00;99.90;;;;;;5018843;28;20457;-84
2021/12/10 03:35:03;;;;;;;8.93;4.07;;;3.00;99.90;;;;;;5018430;28;20517;-84
2021/12/10 03:37:30;;;;;;;9.03;3.40;;;3.00;99.90;;;;;;5017770;28;20468;-84
2021/12/10 03:39:57;;;;;;;6.63;2.77;;;3.00;99.90;;;;;;5019371;28;20457;-85
2021/12/10 03:42:24;;;;;;;4.27;2.50;;;2.90;99.90;;;;;;5020321;28;20456;-85
2021/12/10 03:44:51;;;;;;;4.43;2.43;;;3.00;99.90;;;;;;5020466;28;20466;-84
2021/12/10 03:47:20;;;;;;;5.93;3.00;;;2.90;99.90;;;;;;5019479;28;20561;-84
2021/12/10 03:49:47;;;;;;;6.50;2.70;;;2.90;99.90;;;;;;5019751;28;20465;-84
2021/12/10 03:52:13;;;;;;;7.90;3.17;;;2.80;99.90;;;;;;5018808;28;20829;-85
2021/12/10 03:54:42;;;;;;;10.67;2.97;;;2.80;99.90;;;;;;5020075;28;20985;-84
2021/12/10 03:57:10;;;;;;;4.67;2.27;;;2.80;99.90;;;;;;5018810;28;20473;-84
2021/12/10 03:59:38;;;;;;;5.37;2.40;;;2.80;99.90;;;;;;5017852;28;20445;-84
2021/12/10 04:02:08;;;;;;;6.70;2.80;;;2.80;99.90;;;;;;5017877;28;20453;-84
2021/12/10 04:04:40;;;;;;;7.07;2.40;;;2.70;99.90;;;;;;5018453;28;20617;-84
2021/12/10 04:07:09;;;;;;;6.07;2.57;;;2.70;99.90;;;;;;5018208;28;20489;-84
2021/12/10 04:09:36;;;;;;;6.63;2.20;;;2.70;99.90;;;;;;5018571;28;20456;-84
2021/12/10 04:12:07;;;;;;;5.47;2.20;;;2.60;99.90;;;;;;5017835;28;20465;-84
2021/12/10 04:14:34;;;;;;;7.20;2.10;;;2.60;99.90;;;;;;5019118;28;20942;-84
2021/12/10 04:17:01;;;;;;;4.27;2.20;;;2.60;99.90;;;;;;5017899;28;20478;-83
2021/12/10 04:19:30;;;;;;;8.70;2.23;;;2.60;99.90;;;;;;5018232;28;20958;-84
2021/12/10 04:22:01;;;;;;;8.93;3.60;;;2.60;99.90;;;;;;5017960;28;20450;-84
2021/12/10 04:24:31;;;;;;;9.30;2.53;;;2.60;99.90;;;;;;5017924;28;20453;-84
2021/12/10 04:26:59;;;;;;;4.67;2.03;;;2.60;99.90;;;;;;5021043;28;20496;-84
2021/12/10 04:29:26;;;;;;;3.77;1.70;;;2.50;99.90;;;;;;5020651;28;20454;-84
2021/12/10 04:31:55;;;;;;;2.77;1.73;;;2.60;99.90;;;;;;5019405;28;20450;-84
2021/12/10 04:34:23;;;;;;;8.97;2.10;;;2.60;99.90;;;;;;5020341;28;20528;-84
2021/12/10 04:36:50;;;;;;;9.73;2.20;;;2.70;99.90;;;;;;5019519;28;20487;-84
2021/12/10 04:39:18;;;;;;;6.90;2.00;;;2.70;99.90;;;;;;5019796;28;20453;-84
2021/12/10 04:41:46;;;;;;;7.80;1.90;;;2.70;99.90;;;;;;5016886;28;20448;-83
2021/12/10 04:44:13;;;;;;;5.10;1.70;;;2.80;99.90;;;;;;5019912;28;20489;-83
2021/12/10 04:46:41;;;;;;;6.70;2.07;;;2.70;99.90;;;;;;5019011;28;20871;-83
2021/12/10 04:49:12;;;;;;;3.60;2.10;;;2.80;99.90;;;;;;5021187;28;20847;-83
2021/12/10 04:51:44;;;;;;;6.23;2.00;;;2.80;99.90;;;;;;5018502;28;20503;-83
2021/12/10 04:54:13;;;;;;;6.03;2.10;;;2.80;99.90;;;;;;5009253;28;20459;-83
2021/12/10 04:56:43;;;;;;;4.67;2.43;;;2.80;99.90;;;;;;5004114;28;20475;-83
2021/12/10 04:59:13;;;;;;;4.13;1.50;;;2.70;99.90;;;;;;5017844;28;20453;-83
2021/12/10 05:01:40;;;;;;;12.03;2.37;;;2.60;99.90;;;;;;5016755;28;20529;-83
2021/12/10 05:04:08;;;;;;;5.00;1.53;;;2.60;99.90;;;;;;5017006;28;20453;-84
2021/12/10 05:06:35;;;;;;;6.93;1.90;;;2.60;99.90;;;;;;5018430;28;20455;-86
2021/12/10 05:09:03;;;;;;;5.00;1.47;;;2.70;99.90;;;;;;5020849;28;20216;-80
2021/12/10 05:11:29;;;;;;;2.80;0.97;;;2.90;99.90;;;;;;5016730;28;20446;-78
2021/12/10 05:13:58;;;;;;;3.10;1.30;;;6.10;99.90;;;;;;5013445;28;20467;-79
2021/12/10 05:16:26;;;;;;;5.20;1.50;;;6.30;99.90;;;;;;5014553;28;20477;-78
2021/12/10 05:18:57;;;;;;;8.07;2.00;;;6.80;99.90;;;;;;5013902;28;20448;-81
2021/12/10 05:21:26;;;;;;;7.93;1.93;;;6.50;99.90;;;;;;5015122;28;20460;-81
2021/12/10 05:23:53;;;;;;;5.60;1.53;;;5.60;99.90;;;;;;5015276;28;20450;-81
2021/12/10 05:26:20;;;;;;;5.00;2.17;;;5.00;99.90;;;;;;5014821;28;20482;-82
2021/12/10 05:28:48;;;;;;;5.20;1.47;;;4.60;99.90;;;;;;5015126;28;20457;-81
2021/12/10 05:31:16;;;;;;;7.93;1.87;;;4.20;99.90;;;;;;5014614;28;20450;-82
2021/12/10 05:33:43;;;;;;;6.03;1.73;;;4.00;99.90;;;;;;5015072;28;20447;-81
2021/12/10 05:36:10;;;;;;;8.83;1.63;;;3.80;99.90;;;;;;5014343;28;20478;-81
2021/12/10 05:38:37;;;;;;;6.60;2.33;;;3.50;99.90;;;;;;5013986;28;20450;-82
2021/12/10 05:41:09;;;;;;;10.50;1.73;;;3.40;99.90;;;;;;5011949;28;20821;-81
2021/12/10 05:43:37;;;;;;;7.80;1.63;;;3.30;99.90;;;;;;5013781;28;20454;-81
2021/12/10 05:46:04;;;;;;;6.77;1.63;;;3.40;99.90;;;;;;5013172;28;20470;-80
2021/12/10 05:48:33;;;;;;;4.50;1.93;;;3.30;99.90;;;;;;5012837;28;20900;-82
2021/12/10 05:51:00;;;;;;;5.47;2.50;;;3.30;99.90;;;;;;5012543;28;20481;-81
2021/12/10 05:53:27;;;;;;;3.50;1.87;;;3.20;99.90;;;;;;5015460;28;20450;-81
2021/12/10 05:55:55;;;;;;;5.20;2.10;;;3.20;99.90;;;;;;5015286;28;21037;-81
2021/12/10 05:58:22;;;;;;;4.83;1.87;;;3.20;99.90;;;;;;5015639;28;20452;-80
2021/12/10 06:00:52;;;;;;;7.40;2.17;;;3.20;99.90;;;;;;5014355;28;20515;-81
2021/12/10 06:03:19;;;;;;;9.23;2.10;;;3.10;99.90;;;;;;5014846;28;20477;-82
2021/12/10 06:05:48;;;;;;;5.97;1.77;;;3.10;99.90;;;;;;5014157;28;20561;-81
2021/12/10 06:08:15;;;;;;;6.53;2.30;;;3.20;99.90;;;;;;5014091;28;20842;-82
2021/12/10 06:10:43;;;;;;;3.03;1.90;;;3.20;99.90;;;;;;4994822;28;20983;-81
2021/12/10 06:13:10;;;;;;;3.90;1.77;;;3.10;99.90;;;;;;4994627;28;20500;-83
2021/12/10 06:15:37;;;;;;;4.80;1.90;;;3.10;99.90;;;;;;5003719;28;20477;-81
2021/12/10 06:18:05;;;;;;;5.17;1.80;;;3.10;99.90;;;;;;5010167;28;20450;-78
2021/12/10 06:20:35;;;;;;;6.00;2.60;;;3.00;99.90;;;;;;5010316;28;20457;-80
2021/12/10 06:23:04;;;;;;;3.73;1.93;;;3.00;99.90;;;;;;5019809;28;20473;-80
2021/12/10 06:25:32;;;;;;;10.20;1.90;;;3.00;99.90;;;;;;4991966;28;20496;-80
2021/12/10 06:28:00;;;;;;;8.03;2.37;;;2.90;99.90;;;;;;5005720;28;20481;-79
2021/12/10 06:30:31;;;;;;;5.63;2.20;;;3.00;99.90;;;;;;5009044;28;20450;-80
2021/12/10 06:32:59;;;;;;;4.27;2.33;;;3.00;99.90;;;;;;5012023;28;20515;-78
2021/12/10 06:35:28;;;;;;;4.93;2.50;;;3.00;99.90;;;;;;5011001;28;20470;-81
2021/12/10 06:37:55;;;;;;;7.47;2.03;;;3.10;99.90;;;;;;5013952;28;20456;-80
2021/12/10 06:40:25;;;;;;;9.20;2.53;;;3.00;99.90;;;;;;5004087;28;21022;-80
2021/12/10 06:42:53;;;;;;;7.00;2.20;;;3.00;99.90;;;;;;5010500;28;21038;-82
2021/12/10 06:45:25;;;;;;;4.30;2.63;;;3.10;99.90;;;;;;5011074;28;20466;-81
2021/12/10 06:47:55;;;;;;;4.67;2.30;;;3.10;99.90;;;;;;5011062;28;20485;-81
2021/12/10 06:50:24;;;;;;;8.80;2.10;;;3.20;99.90;;;;;;5012492;28;20468;-80
2021/12/10 06:52:51;;;;;;;8.23;2.60;;;3.20;99.90;;;;;;5014441;28;20449;-80
2021/12/10 06:55:18;;;;;;;5.50;2.23;;;3.20;99.90;;;;;;5014700;28;20445;-80
2021/12/10 06:57:47;;;;;;;4.80;1.63;;;3.10;99.90;;;;;;5011291;28;20978;-81
2021/12/10 07:00:18;;;;;;;5.30;2.00;;;3.00;99.90;;;;;;4996815;28;20460;-79
2021/12/10 07:02:46;;;;;;;5.40;1.47;;;3.00;99.90;;;;;;5010731;28;20439;-80
2021/12/10 07:05:13;;;;;;;6.83;2.33;;;3.00;99.90;;;;;;5015534;28;20454;-80
2021/12/10 07:07:41;;;;;;;9.53;3.43;;;3.10;99.90;;;;;;5007921;28;21139;-79
2021/12/10 07:10:10;;;;;;;6.90;1.90;;;3.20;99.90;;;;;;4997376;28;20465;-80
2021/12/10 07:12:39;;;;;;;4.00;1.80;;;3.30;99.90;;;;;;4999131;28;20769;-80
2021/12/10 07:15:11;;;;;;;4.13;2.27;;;3.30;99.90;;;;;;5014543;28;20973;-80
2021/12/10 07:17:39;;;;;;;4.83;1.97;;;3.30;99.90;;;;;;5015169;28;20445;-82
2021/12/10 07:20:08;;;;;;;4.80;1.93;;;3.30;99.90;;;;;;5016170;28;20457;-82
2021/12/10 07:22:36;;;;;;;5.47;1.63;;;3.40;99.90;;;;;;5015758;28;20462;-79
2021/12/10 07:25:04;;;;;;;6.13;2.47;;;3.40;99.90;;;;;;5015898;28;20832;-80
2021/12/10 07:27:31;;;;;;;3.50;1.80;;;3.30;99.90;;;;;;5011865;28;20488;-80
2021/12/10 07:29:57;;;;;;;6.50;1.40;;;3.30;99.90;;;;;;5014583;28;20456;-80
2021/12/10 07:32:26;;;;;;;6.17;2.37;;;3.20;99.90;;;;;;5015731;28;20462;-81
2021/12/10 07:34:53;;;;;;;9.83;2.47;;;3.20;99.90;;;;;;5017299;28;20461;-81
2021/12/10 07:37:21;;;;;;;5.47;1.83;;;3.20;99.90;;;;;;5018261;28;20477;-80
2021/12/10 07:39:49;;;;;;;4.83;1.83;;;3.30;99.90;;;;;;5001094;28;20487;-80
2021/12/10 07:42:15;;;;;;;2.80;1.43;;;3.30;99.90;;;;;;5009591;28;20831;-80
2021/12/10 07:44:43;;;;;;;5.40;1.93;;;3.20;99.90;;;;;;5014857;28;20454;-80
2021/12/10 07:47:13;;;;;;;8.83;2.00;;;3.30;99.90;;;;;;5011186;28;20478;-81
2021/12/10 07:49:42;;;;;;;5.30;1.40;;;3.30;99.90;;;;;;5018555;28;20441;-82
2021/12/10 07:52:16;;;;;;;5.83;1.70;;;3.50;99.90;;;;;;5026610;28;20461;-82
2021/12/10 07:54:46;;;;;;;5.00;2.00;;;3.40;99.90;;;;;;5021540;28;20450;-82
2021/12/10 07:57:13;;;;;;;4.67;2.00;;;3.50;99.90;;;;;;5008166;28;20537;-81
2021/12/10 07:59:40;;;;;;;4.93;1.40;;;3.60;99.90;;;;;;5015216;28;20450;-82
2021/12/10 08:02:07;;;;;;;6.03;1.70;;;3.60;99.90;;;;;;5013377;28;20454;-80
2021/12/10 08:04:34;;;;;;;11.73;1.87;;;3.60;99.90;;;;;;5014683;28;20455;-80
2021/12/10 08:07:02;;;;;;;4.77;1.43;;;3.60;99.90;;;;;;5014703;28;20556;-81
2021/12/10 08:09:29;;;;;;;6.40;2.20;;;3.60;99.90;;;;;;5006925;28;20482;-78
2021/12/10 08:11:56;;;;;;;7.13;1.30;;;3.60;99.90;;;;;;5012147;28;20454;-80
2021/12/10 08:14:23;;;;;;;7.73;2.00;;;3.60;99.90;;;;;;5016256;28;20446;-82
2021/12/10 08:16:50;;;;;;;7.40;1.90;;;3.60;99.90;;;;;;5021285;28;20464;-81
2021/12/10 08:19:17;;;;;;;6.57;1.83;;;3.60;99.90;;;;;;5005892;28;20471;-79
2021/12/10 08:21:44;;;;;;;3.60;2.23;;;3.70;99.90;;;;;;5011634;28;20464;-83
2021/12/10 08:24:12;;;;;;;6.57;2.23;;;3.70;99.90;;;;;;5007379;28;20900;-79
2021/12/10 08:26:40;;;;;;;6.83;2.07;;;3.70;99.90;;;;;;5013908;28;20842;-81
2021/12/10 08:29:08;;;;;;;5.03;1.93;;;3.80;99.90;;;;;;5013702;28;20477;-79
2021/12/10 08:31:35;;;;;;;4.30;1.90;;;3.80;99.90;;;;;;5011083;28;20472;-82
2021/12/10 08:34:02;;;;;;;4.30;1.53;;;3.80;99.90;;;;;;5013275;28;20449;-81
2021/12/10 08:36:29;;;;;;;7.43;1.50;;;3.80;99.90;;;;;;5014821;28;21071;-82
2021/12/10 08:38:57;;;;;;;7.23;1.70;;;3.90;99.90;;;;;;5012125;28;20460;-81
2021/12/10 08:41:29;;;;;;;5.93;1.40;;;3.90;99.90;;;;;;5011872;28;20461;-80
2021/12/10 08:43:56;;;;;;;7.70;2.43;;;3.90;99.90;;;;;;5003219;28;20458;-81
2021/12/10 08:46:24;;;;;;;7.87;2.43;;;3.90;99.90;;;;;;5013758;28;20481;-79
2021/12/10 08:48:51;;;;;;;5.23;1.60;;;3.90;99.90;;;;;;5013980;28;20577;-80
2021/12/10 08:51:22;;;;;;;6.70;1.70;;;4.00;99.90;;;;;;5013375;28;20482;-81
2021/12/10 08:53:50;;;;;;;4.00;1.70;;;4.00;99.90;;;;;;5013396;28;20455;-81
2021/12/10 08:56:17;;;;;;;7.30;1.60;;;4.00;99.90;;;;;;5015880;28;20973;-80
2021/12/10 08:58:46;;;;;;;6.60;2.20;;;4.10;99.90;;;;;;5014411;28;20548;-79
2021/12/10 09:01:16;;;;;;;8.30;1.90;;;4.10;99.90;;;;;;5013803;28;20460;-79
2021/12/10 09:03:45;;;;;;;5.90;1.87;;;4.20;99.90;;;;;;5015035;28;20982;-79
2021/12/10 09:06:13;;;;;;;7.07;1.63;;;4.20;99.90;;;;;;5014098;28;20475;-81
2021/12/10 09:08:40;;;;;;;5.77;3.00;;;4.30;99.90;;;;;;5013572;28;20497;-79
2021/12/10 09:11:08;;;;;;;4.13;1.50;;;4.30;99.90;;;;;;5010908;28;20446;-80
2021/12/10 09:13:35;;;;;;;9.17;2.10;;;4.40;99.90;;;;;;5012627;28;20473;-80
2021/12/10 09:16:18;;;;;;;5.90;1.70;;;4.40;99.90;;;;;;5009542;28;20474;-80
2021/12/10 09:18:46;;;;;;;8.07;2.30;;;4.40;99.90;;;;;;5013942;28;20896;-80
2021/12/10 09:21:13;;;;;;;4.77;1.70;;;4.50;99.90;;;;;;5012706;28;21001;-81
2021/12/10 09:23:40;;;;;;;7.20;2.67;;;4.60;99.90;;;;;;5009654;28;20962;-81
2021/12/10 09:26:11;;;;;;;6.20;1.83;;;4.60;99.90;;;;;;5003824;28;20475;-81
2021/12/10 09:28:40;;;;;;;12.00;2.17;;;4.70;99.90;;;;;;5006077;28;20485;-79
2021/12/10 09:31:09;;;;;;;3.60;1.70;;;4.70;99.90;;;;;;5004199;28;20453;-81
2021/12/10 09:33:35;;;;;;;3.63;1.40;;;4.80;99.90;;;;;;5006577;28;20849;-78
2021/12/10 09:36:03;;;;;;;3.90;1.47;;;4.90;99.90;;;;;;5002492;28;20471;-80
2021/12/10 09:38:31;;;;;;;7.47;1.57;;;4.90;99.90;;;;;;5003914;28;20444;-78
2021/12/10 09:41:02;;;;;;;5.70;1.77;;;5.00;99.90;;;;;;5003707;28;20466;-81
2021/12/10 09:43:30;;;;;;;6.23;1.40;;;5.00;99.90;;;;;;5008287;28;20483;-80
2021/12/10 09:45:57;;;;;;;3.70;1.40;;;5.10;99.90;;;;;;5009917;28;20482;-79
2021/12/10 09:48:26;;;;;;;5.07;1.70;;;5.20;99.90;;;;;;5006135;28;20486;-82
2021/12/10 09:50:56;;;;;;;6.40;2.10;;;5.20;99.90;;;;;;5011906;28;20945;-81
2021/12/10 09:53:26;;;;;;;3.43;1.43;;;5.30;99.90;;;;;;5005580;28;20469;-79
2021/12/10 09:55:54;;;;;;;3.10;1.70;;;5.30;99.90;;;;;;5006305;28;20472;-80
2021/12/10 09:58:25;;;;;;;7.40;1.63;;;5.40;99.90;;;;;;5003857;28;20466;-79
2021/12/10 10:00:55;;;;;;;4.43;1.90;;;5.40;99.90;;;;;;5004230;28;20488;-81
2021/12/10 10:03:27;;;;;;;6.80;1.67;;;5.40;99.90;;;;;;5005357;28;20456;-83
2021/12/10 10:05:54;;;;;;;4.47;1.63;;;5.50;99.90;;;;;;5000965;28;20466;-81
2021/12/10 10:08:24;;;;;;;2.30;1.40;;;5.60;99.90;;;;;;5008127;28;20490;-82
2021/12/10 10:10:55;;;;;;;6.70;2.00;;;5.60;99.90;;;;;;4999355;28;20542;-80
2021/12/10 10:13:25;;;;;;;12.80;1.90;;;5.70;99.90;;;;;;5008682;28;20976;-81
2021/12/10 10:15:56;;;;;;;4.00;1.70;;;5.80;99.90;;;;;;5005179;28;20482;-79
2021/12/10 10:18:23;;;;;;;3.43;1.70;;;5.80;99.90;;;;;;5001997;28;20462;-82
2021/12/10 10:20:56;;;;;;;6.30;1.60;;;5.80;99.90;;;;;;5009441;28;20544;-80
2021/12/10 10:23:24;;;;;;;4.87;1.40;;;5.80;99.90;;;;;;5001424;28;20555;-84
2021/12/10 10:25:54;;;;;;;6.00;1.40;;;5.90;99.90;;;;;;5004931;28;20522;-82
2021/12/10 10:28:22;;;;;;;5.87;1.30;;;5.90;99.90;;;;;;5006937;28;20488;-81
2021/12/10 10:30:58;;;;;;;3.40;1.30;;;6.00;99.90;;;;;;5014147;28;20571;-82
2021/12/10 10:33:26;;;;;;;3.10;1.70;;;6.10;99.90;;;;;;4990845;28;20483;-79
2021/12/10 10:35:58;;;;;;;5.63;1.47;;;6.20;99.90;;;;;;5008977;28;20565;-82
2021/12/10 10:38:26;;;;;;;4.70;1.40;;;6.30;99.90;;;;;;5007408;28;20448;-80
2021/12/10 10:40:55;;;;;;;3.00;1.40;;;6.50;99.90;;;;;;5005463;28;20456;-81
2021/12/10 10:43:24;;;;;;;5.70;2.00;;;6.50;99.90;;;;;;5004141;28;20477;-81
2021/12/10 10:45:52;;;;;;;5.17;1.80;;;6.60;99.90;;;;;;5003843;28;20466;-81
2021/12/10 10:48:20;;;;;;;5.60;1.93;;;6.70;99.90;;;;;;5006916;28;20995;-80
2021/12/10 10:50:51;;;;;;;4.40;1.50;;;6.70;99.90;;;;;;5007541;28;20812;-80
2021/12/10 10:53:22;;;;;;;5.23;1.30;;;6.80;99.90;;;;;;5005394;28;20444;-80
2021/12/10 10:55:53;;;;;;;6.40;1.50;;;6.80;99.90;;;;;;5000105;28;20559;-83
2021/12/10 10:58:23;;;;;;;4.93;1.20;;;6.80;99.90;;;;;;5006595;28;20453;-80
2021/12/10 11:00:59;;;;;;;6.17;1.37;;;6.80;99.90;;;;;;5005081;28;20819;-82
2021/12/10 11:03:36;;;;;;;5.63;1.70;;;6.90;99.90;;;;;;5002423;28;20917;-83
2021/12/10 11:06:06;;;;;;;4.83;1.53;;;7.00;99.90;;;;;;5004294;28;20487;-81
2021/12/10 11:08:38;;;;;;;6.70;1.47;;;7.20;99.90;;;;;;5001448;28;20913;-82
2021/12/10 11:11:11;;;;;;;6.77;1.67;;;7.30;99.90;;;;;;5003073;28;20509;-83
2021/12/10 11:13:38;;;;;;;4.43;2.43;;;7.40;99.90;;;;;;5003058;28;20972;-81
2021/12/10 11:16:08;;;;;;;5.03;1.93;;;7.80;99.90;;;;;;5002589;28;20512;-81
2021/12/10 11:18:49;;;;;;;4.60;1.30;;;8.40;99.90;;;;;;5002653;28;20833;-82
2021/12/10 11:21:32;;;;;;;3.83;1.20;;;8.80;99.90;;;;;;5003928;28;20544;-80
2021/12/10 11:24:17;;;;;;;6.60;1.60;;;8.90;99.90;;;;;;5003706;28;21007;-81
2021/12/10 11:26:50;;;;;;;5.90;1.40;;;8.70;99.90;;;;;;5004094;28;20470;-82
2021/12/10 11:29:38;;;;;;;5.00;1.60;;;8.60;99.90;;;;;;5005347;28;20923;-80
2021/12/10 11:32:08;;;;;;;4.90;1.70;;;8.40;99.90;;;;;;4991644;28;20963;-82
2021/12/10 11:34:50;;;;;;;8.70;1.70;;;8.40;99.90;;;;;;4993503;28;20485;-81
2021/12/10 11:37:19;;;;;;;4.10;1.40;;;8.20;99.90;;;;;;4995485;28;20485;-80
2021/12/10 11:39:51;;;;;;;5.57;1.47;;;8.20;99.90;;;;;;4997854;28;20454;-82
2021/12/10 11:42:42;;;;;;;4.17;1.43;;;8.20;99.90;;;;;;5001231;28;20456;-81
2021/12/10 11:45:33;;;;;;;6.20;1.50;;;8.00;99.90;;;;;;5016576;28;20452;-81
2021/12/10 11:48:10;;;;;;;12.40;2.00;;;8.00;99.90;;;;;;5016715;28;20835;-81
2021/12/10 11:50:39;;;;;;;6.03;1.67;;;8.00;99.90;;;;;;5016521;28;20519;-81
2021/12/10 11:53:10;;;;;;;3.30;1.20;;;8.10;99.90;;;;;;5016725;28;20447;-82
2021/12/10 11:55:53;;;;;;;11.70;1.73;;;8.20;99.90;;;;;;5016403;28;20486;-83
2021/12/10 11:58:19;;;;;;;2.70;1.40;;;8.30;99.90;;;;;;5016041;28;20981;-81
2021/12/10 12:00:46;;;;;;;5.10;1.47;;;8.50;99.90;;;;;;5016378;28;20453;-81
2021/12/10 12:03:14;;;;;;;7.07;1.73;;;8.50;99.90;;;;;;5017826;28;20461;-82
2021/12/10 12:05:43;;;;;;;5.47;1.40;;;8.70;99.90;;;;;;5017700;28;20517;-83
2021/12/10 12:08:16;;;;;;;2.77;1.17;;;8.70;99.90;;;;;;5016928;28;20836;-81
2021/12/10 12:10:47;;;;;;;4.83;1.40;;;8.60;99.90;;;;;;5017814;28;20536;-82
2021/12/10 12:13:25;;;;;;;4.33;1.30;;;8.50;99.90;;;;;;5019592;28;20493;-81
2021/12/10 12:15:55;;;;;;;4.53;1.40;;;8.60;99.90;;;;;;5016787;28;20479;-82
2021/12/10 12:18:27;;;;;;;6.23;1.70;;;8.50;99.90;;;;;;5019033;28;20461;-81
2021/12/10 12:20:56;;;;;;;4.87;1.43;;;8.60;99.90;;;;;;5016716;28;20453;-82
2021/12/10 12:26:15;;;;;;;4.27;1.27;;;8.80;99.90;;;;;;5015395;28;20467;-80
2021/12/10 12:28:45;;;;;;;8.50;1.90;;;8.80;99.90;;;;;;5016952;28;20453;-82
2021/12/10 12:31:14;;;;;;;5.97;1.57;;;8.90;99.90;;;;;;5017150;28;20450;-82
2021/12/10 12:34:07;;;;;;;5.00;1.23;;;8.80;99.90;;;;;;5015957;28;20840;-82
2021/12/10 12:36:39;;;;;;;4.07;1.40;;;8.80;99.90;;;;;;5007564;28;20489;-82
2021/12/10 12:39:11;;;;;;;6.83;1.80;;;8.80;99.90;;;;;;5016728;28;20447;-83
2021/12/10 12:41:41;;;;;;;2.90;1.20;;;8.60;99.90;;;;;;5016227;28;20448;-81
2021/12/10 12:44:13;;;;;;;7.03;1.60;;;8.60;99.90;;;;;;5015929;28;20453;-81
2021/12/10 12:47:00;;;;;;;3.90;1.10;;;8.50;99.90;;;;;;5015844;28;20481;-80
2021/12/10 12:49:32;;;;;;;5.37;1.63;;;8.30;99.90;;;;;;5016281;28;20496;-82
2021/12/10 12:52:08;;;;;;;4.47;1.47;;;8.20;99.90;;;;;;5016061;28;20915;-82
2021/12/10 12:54:38;;;;;;;5.73;1.40;;;8.00;99.90;;;;;;5015691;28;20460;-83
2021/12/10 12:57:09;;;;;;;6.03;1.37;;;7.80;99.90;;;;;;5015965;28;20478;-82
2021/12/10 12:59:37;;;;;;;3.93;1.10;;;7.80;99.90;;;;;;5016968;28;20472;-81
2021/12/10 13:02:07;;;;;;;3.07;1.33;;;7.70;99.90;;;;;;5015649;28;20453;-82
2021/12/10 13:04:38;;;;;;;3.40;1.10;;;7.60;99.90;;;;;;5016205;28;20457;-81
2021/12/10 13:07:08;;;;;;;3.70;1.83;;;7.50;99.90;;;;;;5014749;28;20481;-82
2021/12/10 13:09:41;;;;;;;4.37;1.23;;;7.50;99.90;;;;;;5016027;28;21055;-82
2021/12/10 13:12:19;;;;;;;5.30;1.67;;;7.40;99.90;;;;;;5015088;28;20457;-83
2021/12/10 13:14:53;;;;;;;4.00;1.43;;;7.50;99.90;;;;;;5014805;28;20492;-83
2021/12/10 13:17:22;;;;;;;2.80;1.07;;;7.60;99.90;;;;;;5015313;28;20473;-83
2021/12/10 13:19:52;;;;;;;4.57;1.60;;;7.50;99.90;;;;;;5015529;28;20903;-81